Time;durP1;ratioP1;P1;durP2;ratioP2;P2;SDS_P1;SDS_P2;PMS_P1;PMS_P2;Temp;Humidity;BMP_temperature;BMP_pressure;BME280_temperature;BME280_humidity;BME280_pressure;Samples;Min_cycle;Max_cycle;Signal;HPM_P1;HPM_P2
2024/03/18 00:02:26;;;;;;;5.82;1.27;;;7.90;94.50;;;;;;5077181;28;20029;-71
2024/03/18 00:04:53;;;;;;;10.52;2.13;;;7.90;94.50;;;;;;5078150;28;20415;-71
2024/03/18 00:07:19;;;;;;;10.68;1.63;;;7.80;94.60;;;;;;5083727;28;20056;-71
2024/03/18 00:09:45;;;;;;;15.20;1.85;;;7.80;94.50;;;;;;5083073;28;20043;-71
2024/03/18 00:12:11;;;;;;;5.43;1.25;;;7.80;94.60;;;;;;5082857;28;20040;-71
2024/03/18 00:14:38;;;;;;;6.68;1.45;;;7.80;94.60;;;;;;5077800;28;20430;-71
2024/03/18 00:17:06;;;;;;;11.82;1.65;;;7.80;94.60;;;;;;5066304;28;20040;-71
2024/03/18 00:19:32;;;;;;;;;;;7.90;94.50;;;;;;5080417;28;20020;-71
2024/03/18 00:21:57;;;;;;;9.48;1.48;;;7.80;94.50;;;;;;5079829;28;19918;-71
2024/03/18 00:24:23;;;;;;;14.70;1.58;;;7.70;94.50;;;;;;5085393;28;20028;-71
2024/03/18 00:26:49;;;;;;;8.90;1.38;;;7.70;94.60;;;;;;5084067;28;20568;-71
2024/03/18 00:29:14;;;;;;;10.25;1.08;;;7.90;94.60;;;;;;5085447;28;20052;-71
2024/03/18 00:31:41;;;;;;;13.38;1.67;;;7.70;94.50;;;;;;5076256;28;20020;-71
2024/03/18 00:34:06;;;;;;;6.28;1.25;;;7.80;94.50;;;;;;5077576;28;20717;-71
2024/03/18 00:36:32;;;;;;;11.70;1.70;;;7.80;94.40;;;;;;5086134;28;20528;-71
2024/03/18 00:38:57;;;;;;;5.88;1.80;;;7.70;94.50;;;;;;5080478;28;20040;-71
2024/03/18 00:44:07;;;;;;;11.32;2.28;;;7.70;94.50;;;;;;5087941;28;20067;-71
2024/03/18 00:46:33;;;;;;;9.40;1.05;;;7.70;94.50;;;;;;5079244;28;20164;-71
2024/03/18 00:49:01;;;;;;;10.43;1.38;;;7.70;94.70;;;;;;5082555;28;20031;-71
2024/03/18 00:51:27;;;;;;;9.60;1.60;;;7.60;94.40;;;;;;5079620;28;20223;-71
2024/03/18 00:53:52;;;;;;;7.90;1.50;;;7.60;94.50;;;;;;5086415;28;20717;-70
2024/03/18 00:56:18;;;;;;;7.93;1.40;;;7.70;94.50;;;;;;5085281;28;20039;-70
2024/03/18 00:58:44;;;;;;;8.75;1.05;;;7.60;94.50;;;;;;5076605;28;20029;-70
2024/03/18 01:01:11;;;;;;;9.23;1.75;;;7.60;94.50;;;;;;5076590;28;20020;-70
2024/03/18 01:03:37;;;;;;;10.00;1.63;;;7.60;94.50;;;;;;5076416;28;20071;-70
2024/03/18 01:06:03;;;;;;;7.45;1.60;;;7.60;94.50;;;;;;5068919;28;20277;-70
2024/03/18 01:08:29;;;;;;;7.05;1.60;;;7.60;94.50;;;;;;5052779;28;20039;-70
2024/03/18 01:10:56;;;;;;;11.27;1.95;;;7.50;94.60;;;;;;5069513;28;20036;-70
2024/03/18 01:13:22;;;;;;;8.83;1.43;;;7.50;94.60;;;;;;5070750;28;20078;-70
2024/03/18 01:15:48;;;;;;;9.23;1.60;;;7.50;94.70;;;;;;5068761;28;20260;-70
2024/03/18 01:18:14;;;;;;;9.20;1.33;;;7.50;94.70;;;;;;5067455;28;20040;-70
2024/03/18 01:20:39;;;;;;;10.35;1.10;;;7.50;94.70;;;;;;5066855;28;20041;-70
2024/03/18 01:23:05;;;;;;;7.75;1.40;;;7.50;94.70;;;;;;5059652;28;20032;-70
2024/03/18 01:25:34;;;;;;;15.98;1.50;;;7.40;94.80;;;;;;5071800;28;20068;-70
2024/03/18 01:28:00;;;;;;;6.10;1.17;;;7.40;94.90;;;;;;5082177;28;20047;-70
2024/03/18 01:30:26;;;;;;;7.80;1.55;;;7.40;94.90;;;;;;5075501;28;20119;-70
2024/03/18 01:32:52;;;;;;;5.72;0.90;;;7.40;94.90;;;;;;5060727;28;20071;-70
2024/03/18 01:35:22;;;;;;;5.63;1.55;;;7.40;94.80;;;;;;5069457;28;20044;-70
2024/03/18 01:37:49;;;;;;;10.60;1.42;;;7.40;94.90;;;;;;5072229;28;20040;-70
2024/03/18 01:40:15;;;;;;;8.75;1.48;;;7.40;95.10;;;;;;5074665;28;20028;-70
2024/03/18 01:42:44;;;;;;;9.75;1.48;;;7.40;95.00;;;;;;5072435;28;20032;-70
2024/03/18 01:45:11;;;;;;;9.57;1.70;;;7.40;95.10;;;;;;5071399;28;20032;-70
2024/03/18 01:47:38;;;;;;;8.68;1.15;;;7.40;95.00;;;;;;5070980;28;20051;-70
2024/03/18 01:50:04;;;;;;;11.70;1.88;;;7.30;95.00;;;;;;5050310;28;20032;-70
2024/03/18 01:52:30;;;;;;;14.32;1.52;;;7.30;95.10;;;;;;5073763;28;20043;-70
2024/03/18 01:54:59;;;;;;;8.52;1.50;;;7.30;95.20;;;;;;5067719;28;20040;-70
2024/03/18 01:57:24;;;;;;;7.85;1.20;;;7.30;95.20;;;;;;5069120;28;20728;-70
2024/03/18 01:59:51;;;;;;;7.82;1.80;;;7.30;95.10;;;;;;5072151;28;20028;-70
2024/03/18 02:02:17;;;;;;;8.48;1.70;;;7.30;95.20;;;;;;5075288;28;20124;-70
2024/03/18 02:04:43;;;;;;;11.68;1.83;;;7.30;95.30;;;;;;5083288;28;20055;-70
2024/03/18 02:07:24;;;;;;;7.75;1.45;;;7.20;95.30;;;;;;5085535;28;20052;-70
2024/03/18 02:09:50;;;;;;;6.65;1.13;;;7.30;95.30;;;;;;5078984;28;20024;-70
2024/03/18 02:12:16;;;;;;;11.85;2.35;;;7.20;95.30;;;;;;5077573;28;20566;-70
2024/03/18 02:14:44;;;;;;;14.73;1.90;;;7.30;95.30;;;;;;5083636;28;20052;-70
2024/03/18 02:17:10;;;;;;;8.35;1.30;;;7.30;95.30;;;;;;5079126;28;20463;-70
2024/03/18 02:19:35;;;;;;;7.82;1.20;;;7.20;95.30;;;;;;5081299;28;20066;-69
2024/03/18 02:22:06;;;;;;;14.50;1.70;;;7.20;95.30;;;;;;5076826;28;20024;-70
2024/03/18 02:24:32;;;;;;;7.95;1.60;;;7.20;95.40;;;;;;5059982;28;20432;-70
2024/03/18 02:27:08;;;;;;;13.90;2.25;;;7.20;95.30;;;;;;5085665;28;20504;-70
2024/03/18 02:29:34;;;;;;;14.57;1.73;;;7.20;95.40;;;;;;5083013;28;20036;-70
2024/03/18 02:31:59;;;;;;;4.80;1.10;;;7.20;95.40;;;;;;5079413;28;20036;-70
2024/03/18 02:34:25;;;;;;;10.57;1.45;;;7.10;95.40;;;;;;5080406;28;20040;-70
2024/03/18 02:36:54;;;;;;;6.88;1.35;;;7.10;95.40;;;;;;5080677;28;20043;-70
2024/03/18 02:39:22;;;;;;;7.78;1.38;;;7.10;95.40;;;;;;5071993;28;20036;-70
2024/03/18 02:41:49;;;;;;;6.60;1.20;;;7.10;95.50;;;;;;5077767;28;20505;-70
2024/03/18 02:44:14;;;;;;;16.30;1.92;;;7.00;95.40;;;;;;5079527;28;20487;-70
2024/03/18 02:46:40;;;;;;;6.75;1.27;;;7.00;95.50;;;;;;5082431;28;20020;-70
2024/03/18 02:49:05;;;;;;;6.32;1.73;;;7.00;95.50;;;;;;5073994;28;20020;-70
2024/03/18 02:51:31;;;;;;;5.97;1.35;;;7.00;95.60;;;;;;5077720;28;20032;-69
2024/03/18 02:53:57;;;;;;;7.78;1.50;;;6.90;95.60;;;;;;5075585;28;20505;-70
2024/03/18 02:56:22;;;;;;;8.20;1.58;;;6.90;95.60;;;;;;5057517;28;20469;-70
2024/03/18 02:58:48;;;;;;;7.88;1.30;;;6.90;95.70;;;;;;5076505;28;20028;-70
2024/03/18 03:01:14;;;;;;;10.75;1.63;;;6.90;95.70;;;;;;5079251;28;20128;-70
2024/03/18 03:03:39;;;;;;;9.00;1.35;;;6.80;95.80;;;;;;5076618;28;20089;-70
2024/03/18 03:06:06;;;;;;;9.25;1.48;;;6.80;95.90;;;;;;5079777;28;20389;-70
2024/03/18 03:08:32;;;;;;;9.00;1.93;;;6.80;95.90;;;;;;5073801;28;20079;-70
2024/03/18 03:11:03;;;;;;;10.05;1.40;;;6.80;95.90;;;;;;5079125;28;20067;-70
2024/03/18 03:13:29;;;;;;;10.05;1.65;;;6.80;95.90;;;;;;5080770;28;20066;-70
2024/03/18 03:15:55;;;;;;;3.95;1.40;;;6.80;96.00;;;;;;5081469;28;20036;-70
2024/03/18 03:18:22;;;;;;;8.52;1.83;;;6.70;96.00;;;;;;5059121;28;20485;-70
2024/03/18 03:20:48;;;;;;;5.03;1.50;;;6.70;96.00;;;;;;5082659;28;20157;-70
2024/03/18 03:23:14;;;;;;;9.25;1.88;;;6.70;96.10;;;;;;5066134;28;20024;-70
2024/03/18 03:25:41;;;;;;;4.13;1.45;;;6.60;96.20;;;;;;5079088;28;20031;-70
2024/03/18 03:28:08;;;;;;;10.55;1.73;;;6.60;96.30;;;;;;5071814;28;20033;-70
2024/03/18 03:30:34;;;;;;;6.35;1.45;;;6.60;96.40;;;;;;5069300;28;20035;-70
2024/03/18 03:33:01;;;;;;;7.65;1.70;;;6.60;96.40;;;;;;5074283;28;20070;-70
2024/03/18 03:35:27;;;;;;;6.38;1.52;;;6.60;96.30;;;;;;5071256;28;20055;-70
2024/03/18 03:37:53;;;;;;;6.15;1.58;;;6.60;96.50;;;;;;5068332;28;20035;-70
2024/03/18 03:40:18;;;;;;;15.82;1.67;;;6.50;96.60;;;;;;5067415;28;20429;-70
2024/03/18 03:42:44;;;;;;;11.95;2.17;;;6.50;96.60;;;;;;5088865;28;20035;-70
2024/03/18 03:45:09;;;;;;;8.43;1.48;;;6.50;96.80;;;;;;5084095;28;20582;-70
2024/03/18 03:47:35;;;;;;;12.43;1.67;;;6.50;96.60;;;;;;5071663;28;20508;-70
2024/03/18 03:50:01;;;;;;;7.57;1.80;;;6.50;96.70;;;;;;5060925;28;20040;-70
2024/03/18 03:52:26;;;;;;;10.75;1.90;;;6.40;96.80;;;;;;5074467;28;20102;-70
2024/03/18 03:54:52;;;;;;;14.15;2.03;;;6.40;96.90;;;;;;5072068;28;20183;-70
2024/03/18 03:57:17;;;;;;;13.02;1.88;;;6.40;96.80;;;;;;5072237;28;20082;-70
2024/03/18 03:59:43;;;;;;;7.47;1.30;;;6.40;96.90;;;;;;5069438;28;20055;-70
2024/03/18 04:02:10;;;;;;;4.95;1.23;;;6.40;97.00;;;;;;5074214;28;20036;-70
2024/03/18 04:04:37;;;;;;;6.95;1.45;;;6.40;97.00;;;;;;5071279;28;20068;-70
2024/03/18 04:07:02;;;;;;;4.88;1.48;;;6.40;97.10;;;;;;5076069;28;20400;-70
2024/03/18 04:09:28;;;;;;;10.68;2.15;;;6.40;97.00;;;;;;5068746;28;20029;-70
2024/03/18 04:11:54;;;;;;;12.15;1.92;;;6.40;97.00;;;;;;5076178;28;20031;-70
2024/03/18 04:14:19;;;;;;;10.73;1.58;;;6.40;97.10;;;;;;5069251;28;20024;-70
2024/03/18 04:16:45;;;;;;;5.03;1.42;;;6.30;97.10;;;;;;5068091;28;20103;-70
2024/03/18 04:19:12;;;;;;;8.40;1.55;;;6.30;97.20;;;;;;5055160;28;20112;-70
2024/03/18 04:21:37;;;;;;;6.55;1.67;;;6.30;97.10;;;;;;5072528;28;20036;-70
2024/03/18 04:24:03;;;;;;;6.50;1.65;;;6.30;97.10;;;;;;5061470;28;20679;-70
2024/03/18 04:26:29;;;;;;;6.35;1.52;;;6.30;97.20;;;;;;5069893;28;20024;-70
2024/03/18 04:28:55;;;;;;;7.65;1.50;;;6.30;97.20;;;;;;5069192;28;20027;-70
2024/03/18 04:31:21;;;;;;;7.78;1.75;;;6.20;97.20;;;;;;5070798;28;20496;-70
2024/03/18 04:33:50;;;;;;;6.70;1.40;;;6.30;97.30;;;;;;5081589;28;20036;-70
2024/03/18 04:36:16;;;;;;;6.18;1.60;;;6.20;97.10;;;;;;5068334;28;20045;-70
2024/03/18 04:38:41;;;;;;;8.27;1.52;;;6.20;97.30;;;;;;5076769;28;20110;-71
2024/03/18 04:41:08;;;;;;;7.95;1.75;;;6.10;97.30;;;;;;5067723;28;20137;-71
2024/03/18 04:43:33;;;;;;;8.13;1.77;;;6.10;97.40;;;;;;5078136;28;20016;-70
2024/03/18 04:45:59;;;;;;;6.70;1.48;;;6.10;97.50;;;;;;5089643;28;20013;-71
2024/03/18 04:48:25;;;;;;;15.32;2.08;;;6.10;97.50;;;;;;5076549;28;20025;-71
2024/03/18 04:50:50;;;;;;;6.07;1.55;;;6.00;97.50;;;;;;5073607;28;20032;-71
2024/03/18 04:53:16;;;;;;;6.95;1.77;;;6.10;97.50;;;;;;5074824;28;20032;-70
2024/03/18 04:55:42;;;;;;;10.65;1.83;;;6.00;97.70;;;;;;5070064;28;20039;-70
2024/03/18 04:58:08;;;;;;;6.85;1.83;;;6.00;97.80;;;;;;5069219;28;20416;-70
2024/03/18 05:00:35;;;;;;;4.22;1.33;;;6.00;97.70;;;;;;5070363;28;20066;-70
2024/03/18 05:03:01;;;;;;;5.25;1.55;;;6.00;98.00;;;;;;5069839;28;20544;-71
2024/03/18 05:05:26;;;;;;;6.70;1.42;;;6.00;97.80;;;;;;5051010;28;20032;-70
2024/03/18 05:07:54;;;;;;;6.25;1.70;;;5.90;97.80;;;;;;5075416;28;20107;-70
2024/03/18 05:10:23;;;;;;;6.47;1.52;;;5.90;97.90;;;;;;5073987;28;20501;-70
2024/03/18 05:12:49;;;;;;;6.80;1.70;;;5.90;98.00;;;;;;5060985;28;20115;-70
2024/03/18 05:15:15;;;;;;;8.57;1.90;;;5.80;98.10;;;;;;5068238;28;20119;-70
2024/03/18 05:17:40;;;;;;;4.45;1.30;;;5.90;98.20;;;;;;5059100;28;20032;-70
2024/03/18 05:20:11;;;;;;;9.32;2.20;;;5.70;98.30;;;;;;5055795;28;20052;-70
2024/03/18 05:22:37;;;;;;;6.93;1.67;;;5.70;98.40;;;;;;5066873;28;20186;-70
2024/03/18 05:25:06;;;;;;;6.43;2.00;;;5.80;98.30;;;;;;5077357;28;20027;-70
2024/03/18 05:27:32;;;;;;;7.85;1.90;;;5.70;98.40;;;;;;5052304;28;20877;-64
2024/03/18 05:29:58;;;;;;;10.68;2.42;;;5.70;98.50;;;;;;5068586;28;20151;-66
2024/03/18 05:32:24;;;;;;;4.90;1.67;;;5.70;98.50;;;;;;5055585;28;20044;-67
2024/03/18 05:34:50;;;;;;;5.10;1.83;;;5.70;98.50;;;;;;5072748;28;20035;-67
2024/03/18 05:37:16;;;;;;;10.88;1.98;;;5.70;98.50;;;;;;5060263;28;20374;-66
2024/03/18 05:39:42;;;;;;;8.02;2.03;;;5.80;98.70;;;;;;5071676;28;20465;-67
2024/03/18 05:42:07;;;;;;;4.00;1.95;;;5.80;98.80;;;;;;5054865;28;20043;-66
2024/03/18 05:44:33;;;;;;;8.60;2.42;;;5.80;98.80;;;;;;5073580;28;20120;-67
2024/03/18 05:46:59;;;;;;;9.30;1.67;;;5.80;98.90;;;;;;5059915;28;20075;-67
2024/03/18 05:49:26;;;;;;;9.05;2.13;;;5.80;98.90;;;;;;5051931;28;20039;-66
2024/03/18 05:51:52;;;;;;;7.07;1.88;;;5.80;99.00;;;;;;5067269;28;20040;-67
2024/03/18 05:54:18;;;;;;;4.45;1.77;;;5.80;99.20;;;;;;5056999;28;20040;-66
2024/03/18 05:56:44;;;;;;;6.55;2.22;;;5.80;99.00;;;;;;5078567;28;20052;-67
2024/03/18 05:59:10;;;;;;;10.88;2.22;;;5.90;98.90;;;;;;5059709;28;20098;-66
2024/03/18 06:01:40;;;;;;;7.43;2.08;;;5.90;99.00;;;;;;5076559;28;20044;-66
2024/03/18 06:04:06;;;;;;;13.55;2.35;;;5.90;99.10;;;;;;5065010;28;20089;-67
2024/03/18 06:06:32;;;;;;;7.15;2.28;;;5.90;99.10;;;;;;5077108;28;20456;-66
2024/03/18 06:08:59;;;;;;;5.63;1.50;;;5.90;98.90;;;;;;5075227;28;20042;-67
2024/03/18 06:11:25;;;;;;;11.90;2.58;;;6.00;99.00;;;;;;5059188;28;20535;-66
2024/03/18 06:13:51;;;;;;;8.60;2.35;;;6.00;99.30;;;;;;5065418;28;20413;-66
2024/03/18 06:16:17;;;;;;;7.10;2.38;;;6.00;99.00;;;;;;5072118;28;20059;-66
2024/03/18 06:18:43;;;;;;;7.50;2.17;;;6.00;99.00;;;;;;5079517;28;20032;-66
2024/03/18 06:21:16;;;;;;;6.32;2.33;;;6.00;99.00;;;;;;5058675;28;20043;-66
2024/03/18 06:23:59;;;;;;;8.40;2.13;;;6.00;99.00;;;;;;5080129;28;20037;-66
2024/03/18 06:26:25;;;;;;;12.63;2.75;;;6.00;99.10;;;;;;5058428;28;20029;-66
2024/03/18 06:28:51;;;;;;;9.52;2.78;;;6.00;99.10;;;;;;5075016;28;20139;-66
2024/03/18 06:31:16;;;;;;;8.95;2.50;;;6.00;99.10;;;;;;5077120;28;20020;-66
2024/03/18 06:33:43;;;;;;;5.22;2.42;;;6.00;99.10;;;;;;5080653;28;20496;-66
2024/03/18 06:36:10;;;;;;;13.32;3.05;;;6.00;99.10;;;;;;5083023;28;20412;-66
2024/03/18 06:38:36;;;;;;;13.15;3.08;;;6.00;99.10;;;;;;5073211;28;20032;-67
2024/03/18 06:41:02;;;;;;;8.10;2.78;;;6.00;99.10;;;;;;5062964;28;20425;-66
2024/03/18 06:43:27;;;;;;;12.35;2.75;;;6.00;99.10;;;;;;5076694;28;20081;-66
2024/03/18 06:45:53;;;;;;;5.15;2.40;;;6.00;99.00;;;;;;5077678;28;20051;-66
2024/03/18 06:48:19;;;;;;;10.05;2.80;;;6.10;99.10;;;;;;5077423;28;20496;-67
2024/03/18 06:50:44;;;;;;;12.27;3.03;;;6.10;99.10;;;;;;5082506;28;20024;-66
2024/03/18 06:53:11;;;;;;;11.15;3.40;;;6.10;99.20;;;;;;5076688;28;20055;-67
2024/03/18 06:55:38;;;;;;;9.35;3.15;;;6.10;99.40;;;;;;5081878;28;20032;-67
2024/03/18 06:58:04;;;;;;;10.90;3.33;;;6.20;99.50;;;;;;5058432;28;20036;-67
2024/03/18 07:00:31;;;;;;;10.38;3.05;;;6.30;99.60;;;;;;5075504;28;20039;-67
2024/03/18 07:02:57;;;;;;;7.97;3.05;;;6.30;99.70;;;;;;5058232;28;20060;-66
2024/03/18 07:05:23;;;;;;;11.98;2.90;;;6.30;99.60;;;;;;5075320;28;20158;-67
2024/03/18 07:07:49;;;;;;;8.23;2.72;;;6.30;99.40;;;;;;5071091;28;20038;-67
2024/03/18 07:10:16;;;;;;;9.35;2.95;;;6.30;99.50;;;;;;5070804;28;20039;-66
2024/03/18 07:12:43;;;;;;;10.27;3.35;;;6.40;99.60;;;;;;5078008;28;20471;-67
2024/03/18 07:15:11;;;;;;;10.63;3.20;;;6.40;99.50;;;;;;5077663;28;20029;-66
2024/03/18 07:17:37;;;;;;;12.75;3.33;;;6.40;99.40;;;;;;5075707;28;20126;-66
2024/03/18 07:20:06;;;;;;;8.50;2.83;;;6.30;99.40;;;;;;5080532;28;20035;-66
2024/03/18 07:22:39;;;;;;;6.97;3.17;;;6.40;99.40;;;;;;5075771;28;20724;-66
2024/03/18 07:25:11;;;;;;;7.53;2.97;;;6.40;99.30;;;;;;5075246;28;20028;-66
2024/03/18 07:27:38;;;;;;;6.65;2.67;;;6.50;99.50;;;;;;5076017;28;20123;-66
2024/03/18 07:30:05;;;;;;;9.10;3.70;;;6.50;99.40;;;;;;5073507;28;20076;-66
2024/03/18 07:32:31;;;;;;;9.52;2.88;;;6.60;99.60;;;;;;5065359;28;20407;-66
2024/03/18 07:34:56;;;;;;;10.15;3.25;;;6.50;99.70;;;;;;5075080;28;20037;-66
2024/03/18 07:37:23;;;;;;;9.60;3.28;;;6.50;99.70;;;;;;5077721;28;20043;-67
2024/03/18 07:39:48;;;;;;;9.18;2.90;;;6.60;99.90;;;;;;5078584;28;20093;-66
2024/03/18 07:42:14;;;;;;;13.82;3.40;;;6.60;99.90;;;;;;5076496;28;20037;-66
2024/03/18 07:44:41;;;;;;;4.63;2.40;;;6.50;99.90;;;;;;5063104;28;20044;-66
2024/03/18 07:47:08;;;;;;;7.38;3.03;;;6.50;99.90;;;;;;5077899;28;20062;-66
2024/03/18 07:49:36;;;;;;;9.30;2.97;;;6.50;99.90;;;;;;5076750;28;20024;-68
2024/03/18 07:52:01;;;;;;;;;;;6.50;99.90;;;;;;5074788;28;20056;-67
2024/03/18 07:54:33;;;;;;;10.68;2.95;;;6.60;99.90;;;;;;5078053;28;19955;-67
2024/03/18 07:57:01;;;;;;;7.63;2.67;;;6.60;99.90;;;;;;5079607;28;20040;-66
2024/03/18 07:59:26;;;;;;;11.35;3.42;;;6.60;99.90;;;;;;5065705;28;20044;-66
2024/03/18 08:01:52;;;;;;;8.30;3.50;;;6.60;99.90;;;;;;5080124;28;20036;-66
2024/03/18 08:04:18;;;;;;;7.63;3.10;;;6.70;99.90;;;;;;5059422;28;20025;-66
2024/03/18 08:06:48;;;;;;;8.65;3.30;;;6.60;99.90;;;;;;5076577;28;20035;-66
2024/03/18 08:09:18;;;;;;;14.38;3.65;;;6.70;99.90;;;;;;5074413;28;20072;-66
2024/03/18 08:11:44;;;;;;;8.15;3.28;;;6.80;99.90;;;;;;5075444;28;21487;-66
2024/03/18 08:14:10;;;;;;;9.00;3.08;;;6.80;99.90;;;;;;5078467;28;20416;-66
2024/03/18 08:16:36;;;;;;;9.68;3.28;;;6.80;99.90;;;;;;5077446;28;20031;-67
2024/03/18 08:19:03;;;;;;;6.63;2.65;;;6.90;99.90;;;;;;5079310;28;20047;-66
2024/03/18 08:21:32;;;;;;;9.90;3.45;;;7.00;99.90;;;;;;5077614;28;20732;-66
2024/03/18 08:23:58;;;;;;;9.75;3.40;;;7.00;99.90;;;;;;5076247;28;20032;-66
2024/03/18 08:26:24;;;;;;;10.07;3.60;;;7.00;99.90;;;;;;5081290;28;20055;-66
2024/03/18 08:28:50;;;;;;;10.15;3.38;;;7.00;99.80;;;;;;5083993;28;20031;-66
2024/03/18 08:31:16;;;;;;;9.32;3.30;;;7.00;99.90;;;;;;5079444;28;20066;-66
2024/03/18 08:33:41;;;;;;;5.95;2.83;;;7.10;99.70;;;;;;5080088;28;20044;-66
2024/03/18 08:36:07;;;;;;;12.82;3.80;;;7.10;99.80;;;;;;5084415;28;20115;-66
2024/03/18 08:38:33;;;;;;;9.50;3.50;;;7.20;99.90;;;;;;5085065;28;20039;-66
2024/03/18 08:40:58;;;;;;;13.80;3.67;;;7.30;99.70;;;;;;5082512;28;20032;-66
2024/03/18 08:43:25;;;;;;;10.30;3.22;;;7.30;99.80;;;;;;5064772;28;20046;-66
2024/03/18 08:45:54;;;;;;;14.73;3.70;;;7.40;99.60;;;;;;5081380;28;20040;-66
2024/03/18 08:48:21;;;;;;;8.43;3.15;;;7.50;99.50;;;;;;5079685;28;20040;-66
2024/03/18 08:50:47;;;;;;;12.05;3.42;;;7.50;99.40;;;;;;5081078;28;20039;-66
2024/03/18 08:53:13;;;;;;;14.02;3.83;;;7.60;99.40;;;;;;5077445;28;20052;-66
2024/03/18 08:55:39;;;;;;;9.30;3.60;;;7.70;99.10;;;;;;5074653;28;20208;-67
2024/03/18 08:58:04;;;;;;;12.98;3.92;;;7.60;99.00;;;;;;5085142;28;20039;-66
2024/03/18 09:00:30;;;;;;;10.75;3.28;;;7.70;98.90;;;;;;5079348;28;20036;-66
2024/03/18 09:02:56;;;;;;;10.23;3.17;;;7.70;99.00;;;;;;5081370;28;20035;-66
2024/03/18 09:05:22;;;;;;;13.40;3.72;;;7.70;98.90;;;;;;5080337;28;20406;-66
2024/03/18 09:07:48;;;;;;;12.07;3.25;;;7.70;98.70;;;;;;5082927;28;20047;-66
2024/03/18 09:10:13;;;;;;;11.52;3.88;;;7.80;98.80;;;;;;5078807;28;20497;-66
2024/03/18 09:12:40;;;;;;;13.00;3.45;;;7.90;98.90;;;;;;5061186;28;20037;-66
2024/03/18 09:15:06;;;;;;;12.60;4.13;;;7.90;98.70;;;;;;5079641;28;20040;-67
2024/03/18 09:17:31;;;;;;;6.97;3.33;;;8.00;98.80;;;;;;5083712;28;20043;-66
2024/03/18 09:19:58;;;;;;;10.55;3.55;;;8.00;98.80;;;;;;5076125;28;20032;-64
2024/03/18 09:22:23;;;;;;;9.52;3.40;;;8.10;98.80;;;;;;5074412;28;20103;-64
2024/03/18 09:24:49;;;;;;;12.35;3.58;;;8.10;98.80;;;;;;5080999;28;20106;-65
2024/03/18 09:27:15;;;;;;;14.07;3.80;;;8.20;98.70;;;;;;5079499;28;20029;-65
2024/03/18 09:29:40;;;;;;;12.13;3.40;;;8.20;98.80;;;;;;5085575;28;20028;-65
2024/03/18 09:32:06;;;;;;;11.38;3.95;;;8.30;99.00;;;;;;5075988;28;20041;-65
2024/03/18 09:34:31;;;;;;;7.35;2.70;;;8.30;98.70;;;;;;5078385;28;20558;-64
2024/03/18 09:36:57;;;;;;;12.10;3.75;;;8.40;98.70;;;;;;5078217;28;20024;-64
2024/03/18 09:39:23;;;;;;;9.93;3.33;;;8.40;98.60;;;;;;5082116;28;20397;-67
2024/03/18 09:41:53;;;;;;;8.27;3.42;;;8.40;98.70;;;;;;5079173;28;20185;-65
2024/03/18 09:44:19;;;;;;;7.47;3.35;;;8.50;98.70;;;;;;5075498;28;21034;-65
2024/03/18 09:46:44;;;;;;;18.67;4.60;;;8.50;98.50;;;;;;5078948;28;20066;-65
2024/03/18 09:49:25;;;;;;;10.48;3.65;;;8.70;98.60;;;;;;5085829;28;20464;-65
2024/03/18 09:51:52;;;;;;;13.00;4.00;;;8.70;98.40;;;;;;5076033;28;20036;-65
2024/03/18 09:54:20;;;;;;;13.15;4.53;;;8.80;98.50;;;;;;5077011;28;20036;-66
2024/03/18 09:56:59;;;;;;;12.23;3.38;;;8.90;98.30;;;;;;5079630;28;20024;-66
2024/03/18 09:59:25;;;;;;;14.52;4.30;;;9.00;98.40;;;;;;5061062;28;20041;-66
2024/03/18 10:01:51;;;;;;;13.20;3.90;;;9.20;98.50;;;;;;5079916;28;20048;-65
2024/03/18 10:04:16;;;;;;;16.55;3.75;;;9.40;98.60;;;;;;5081044;28;20024;-67
2024/03/18 10:06:42;;;;;;;11.73;4.13;;;9.40;98.30;;;;;;5080550;28;20043;-65
2024/03/18 10:09:08;;;;;;;13.43;3.83;;;9.50;98.10;;;;;;5080376;28;20093;-66
2024/03/18 10:11:34;;;;;;;10.60;3.40;;;9.50;98.10;;;;;;5083487;28;20704;-66
2024/03/18 10:14:00;;;;;;;15.70;4.75;;;9.70;98.20;;;;;;5080490;28;20027;-66
2024/03/18 10:16:27;;;;;;;11.65;3.97;;;9.70;98.10;;;;;;5075803;28;20032;-66
2024/03/18 10:18:53;;;;;;;10.55;4.25;;;9.90;98.10;;;;;;5080892;28;20047;-65
2024/03/18 10:21:19;;;;;;;11.05;3.97;;;10.00;97.60;;;;;;5078312;28;20028;-65
2024/03/18 10:23:53;;;;;;;18.17;5.00;;;10.10;97.30;;;;;;5081266;28;20035;-66
2024/03/18 10:26:19;;;;;;;12.43;4.22;;;10.10;97.00;;;;;;5075713;28;20521;-66
2024/03/18 10:28:48;;;;;;;14.38;3.90;;;10.20;96.80;;;;;;5079860;28;20047;-66
2024/03/18 10:31:16;;;;;;;12.20;4.15;;;10.30;96.50;;;;;;5074252;28;20056;-66
2024/03/18 10:33:46;;;;;;;8.43;3.83;;;10.50;96.60;;;;;;5075496;28;20040;-66
2024/03/18 10:36:36;;;;;;;12.15;4.13;;;10.60;96.30;;;;;;5076225;28;20029;-66
2024/03/18 10:39:07;;;;;;;9.65;3.40;;;10.80;96.00;;;;;;5070444;28;20044;-66
2024/03/18 10:41:46;;;;;;;9.50;3.08;;;10.80;95.60;;;;;;5079116;28;20075;-66
2024/03/18 10:44:19;;;;;;;10.98;3.58;;;10.90;95.90;;;;;;5060297;28;20036;-66
2024/03/18 10:46:46;;;;;;;12.25;3.97;;;11.00;95.40;;;;;;5078048;28;20039;-66
2024/03/18 10:49:17;;;;;;;9.00;4.20;;;11.30;95.30;;;;;;5079942;28;20477;-66
2024/03/18 10:51:45;;;;;;;12.18;4.05;;;11.50;95.40;;;;;;5081716;28;20040;-66
2024/03/18 10:54:15;;;;;;;10.77;4.13;;;11.80;95.30;;;;;;5072200;28;20060;-66
2024/03/18 10:56:44;;;;;;;11.35;3.75;;;12.10;94.90;;;;;;5075769;28;20028;-66
2024/03/18 10:59:14;;;;;;;8.20;3.33;;;12.40;94.40;;;;;;5074816;28;20044;-66
2024/03/18 11:01:40;;;;;;;10.00;3.72;;;12.80;94.50;;;;;;5073845;28;20064;-66
2024/03/18 11:04:19;;;;;;;9.40;3.75;;;12.80;94.30;;;;;;5076167;28;20748;-66
2024/03/18 11:06:49;;;;;;;15.18;4.22;;;13.00;93.20;;;;;;5078324;28;20036;-66
2024/03/18 11:09:17;;;;;;;12.80;4.10;;;13.20;92.70;;;;;;5074324;28;20041;-66
2024/03/18 11:11:44;;;;;;;16.85;5.20;;;13.30;92.50;;;;;;5083223;28;20038;-66
2024/03/18 11:14:12;;;;;;;12.38;4.97;;;13.30;92.80;;;;;;5073858;28;20033;-66
2024/03/18 11:16:44;;;;;;;13.60;4.10;;;13.40;91.70;;;;;;5080721;28;20504;-66
2024/03/18 11:19:16;;;;;;;10.20;4.63;;;13.60;92.10;;;;;;5078194;28;20392;-66
2024/03/18 11:21:42;;;;;;;10.32;4.65;;;13.80;92.30;;;;;;5079201;28;20028;-66
2024/03/18 11:24:21;;;;;;;11.43;3.67;;;14.10;92.30;;;;;;5061437;28;20035;-70
2024/03/18 11:26:46;;;;;;;10.00;4.00;;;14.30;92.30;;;;;;5075340;28;20025;-66
2024/03/18 11:29:14;;;;;;;7.80;3.33;;;14.60;91.70;;;;;;5076625;28;20062;-66
2024/03/18 11:31:40;;;;;;;;;;;14.70;91.50;;;;;;5061324;28;20036;-66
2024/03/18 11:34:09;;;;;;;10.15;3.40;;;14.40;91.00;;;;;;5063975;28;19904;-67
2024/03/18 11:36:39;;;;;;;9.93;3.35;;;14.60;90.80;;;;;;5080854;28;20146;-66
2024/03/18 11:39:07;;;;;;;10.00;3.70;;;14.40;91.10;;;;;;5072315;28;20047;-66
2024/03/18 11:41:36;;;;;;;;;;;14.20;91.10;;;;;;5064499;28;20043;-66
2024/03/18 11:44:01;;;;;;;12.85;4.18;;;14.40;91.20;;;;;;5076613;28;20003;-66
2024/03/18 11:46:28;;;;;;;12.23;4.20;;;14.50;90.90;;;;;;5062002;28;20544;-67
2024/03/18 11:49:05;;;;;;;8.48;3.70;;;14.20;90.70;;;;;;5072875;28;20032;-67
2024/03/18 11:51:32;;;;;;;6.70;3.88;;;14.10;90.60;;;;;;5080854;28;20035;-67
2024/03/18 11:54:00;;;;;;;12.32;3.80;;;14.00;91.00;;;;;;5063848;28;20123;-67
2024/03/18 11:56:26;;;;;;;;;;;14.20;91.30;;;;;;5061083;28;20147;-67
2024/03/18 11:58:56;;;;;;;10.45;3.97;;;14.00;90.70;;;;;;5079313;28;21436;-67
2024/03/18 12:01:26;;;;;;;7.22;3.35;;;13.90;91.10;;;;;;5084061;28;20226;-67
2024/03/18 12:03:51;;;;;;;9.68;3.15;;;13.70;91.00;;;;;;5082002;28;20676;-67
2024/03/18 12:06:18;;;;;;;13.05;3.47;;;13.60;91.20;;;;;;5084893;28;20036;-67
2024/03/18 12:08:43;;;;;;;9.85;3.90;;;13.50;91.20;;;;;;5084267;28;20496;-67
2024/03/18 12:11:09;;;;;;;14.38;4.15;;;13.60;91.30;;;;;;5080667;28;20089;-67
2024/03/18 12:13:35;;;;;;;9.70;4.28;;;13.60;91.50;;;;;;5081396;28;20552;-67
2024/03/18 12:16:03;;;;;;;15.93;4.28;;;13.60;91.40;;;;;;5081995;28;20027;-66
2024/03/18 12:18:31;;;;;;;10.48;4.38;;;13.70;91.10;;;;;;5077766;28;20040;-67
2024/03/18 12:20:57;;;;;;;10.32;3.80;;;13.50;91.30;;;;;;5079200;28;20032;-66
2024/03/18 12:29:04;;;;;;;10.45;4.22;;;13.20;91.60;;;;;;5078974;28;20089;-66
2024/03/18 12:31:33;;;;;;;13.70;4.25;;;13.10;91.50;;;;;;5077148;28;20085;-66
2024/03/18 12:34:02;;;;;;;13.88;4.55;;;13.00;91.70;;;;;;5086222;28;20054;-66
2024/03/18 12:36:30;;;;;;;14.45;3.65;;;12.90;91.90;;;;;;5078405;28;20033;-66
2024/03/18 12:38:58;;;;;;;9.33;4.00;;;12.80;91.90;;;;;;5079227;28;20036;-67
2024/03/18 12:41:26;;;;;;;14.15;4.60;;;12.80;92.10;;;;;;5060838;28;20143;-66
2024/03/18 12:43:52;;;;;;;10.02;3.47;;;12.80;92.30;;;;;;5073567;28;20036;-66
2024/03/18 12:46:18;;;;;;;13.45;4.55;;;12.70;92.10;;;;;;5074814;28;20036;-67
2024/03/18 12:48:45;;;;;;;13.15;4.38;;;12.70;92.20;;;;;;5078477;28;20047;-66
2024/03/18 12:51:16;;;;;;;10.18;4.10;;;12.70;92.10;;;;;;5077098;28;20024;-66
2024/03/18 12:53:46;;;;;;;14.90;4.05;;;12.70;92.30;;;;;;5079671;28;20032;-66
2024/03/18 12:56:13;;;;;;;15.45;3.80;;;12.70;92.30;;;;;;5075337;28;20120;-66
2024/03/18 12:58:38;;;;;;;16.67;4.20;;;12.60;92.20;;;;;;5075074;28;20021;-69